sensor_id;sensor_type;location;lat;lon;timestamp;P1;durP1;ratioP1;P2;durP2;ratioP2
11191;SDS011;5652;48.406;10.820;2022-11-20T00:01:45;7.00;;;4.70;;
11191;SDS011;5652;48.406;10.820;2022-11-20T00:04:12;8.43;;;4.55;;
11191;SDS011;5652;48.406;10.820;2022-11-20T00:06:39;6.93;;;4.60;;
11191;SDS011;5652;48.406;10.820;2022-11-20T00:09:10;5.88;;;4.25;;
11191;SDS011;5652;48.406;10.820;2022-11-20T00:11:37;6.43;;;4.18;;
11191;SDS011;5652;48.406;10.820;2022-11-20T00:14:04;6.30;;;4.32;;
11191;SDS011;5652;48.406;10.820;2022-11-20T00:16:32;6.60;;;4.10;;
11191;SDS011;5652;48.406;10.820;2022-11-20T00:18:59;5.38;;;3.92;;
11191;SDS011;5652;48.406;10.820;2022-11-20T00:21:27;7.15;;;4.43;;
11191;SDS011;5652;48.406;10.820;2022-11-20T00:23:55;7.05;;;4.07;;
11191;SDS011;5652;48.406;10.820;2022-11-20T00:26:25;6.87;;;4.30;;
11191;SDS011;5652;48.406;10.820;2022-11-20T00:28:53;8.15;;;4.43;;
11191;SDS011;5652;48.406;10.820;2022-11-20T00:31:21;5.87;;;4.00;;
11191;SDS011;5652;48.406;10.820;2022-11-20T00:33:48;8.50;;;4.30;;
11191;SDS011;5652;48.406;10.820;2022-11-20T00:36:16;6.10;;;3.78;;
11191;SDS011;5652;48.406;10.820;2022-11-20T00:38:44;6.78;;;4.15;;
11191;SDS011;5652;48.406;10.820;2022-11-20T00:41:12;5.65;;;3.70;;
11191;SDS011;5652;48.406;10.820;2022-11-20T00:43:41;6.75;;;4.07;;
11191;SDS011;5652;48.406;10.820;2022-11-20T00:46:10;6.57;;;3.88;;
11191;SDS011;5652;48.406;10.820;2022-11-20T00:48:37;5.55;;;3.80;;
11191;SDS011;5652;48.406;10.820;2022-11-20T00:51:04;5.45;;;4.07;;
11191;SDS011;5652;48.406;10.820;2022-11-20T00:53:32;4.47;;;3.17;;
11191;SDS011;5652;48.406;10.820;2022-11-20T00:56:01;7.20;;;3.63;;
11191;SDS011;5652;48.406;10.820;2022-11-20T00:58:29;5.95;;;3.58;;
11191;SDS011;5652;48.406;10.820;2022-11-20T01:01:01;7.85;;;3.35;;
11191;SDS011;5652;48.406;10.820;2022-11-20T01:03:30;5.07;;;3.10;;
11191;SDS011;5652;48.406;10.820;2022-11-20T01:06:02;5.82;;;3.90;;
11191;SDS011;5652;48.406;10.820;2022-11-20T01:08:30;6.07;;;3.75;;
11191;SDS011;5652;48.406;10.820;2022-11-20T01:11:01;5.88;;;3.78;;
11191;SDS011;5652;48.406;10.820;2022-11-20T01:13:29;7.10;;;4.20;;
11191;SDS011;5652;48.406;10.820;2022-11-20T01:16:08;6.78;;;3.70;;
11191;SDS011;5652;48.406;10.820;2022-11-20T01:18:35;5.65;;;3.97;;
11191;SDS011;5652;48.406;10.820;2022-11-20T01:21:03;5.97;;;3.67;;
11191;SDS011;5652;48.406;10.820;2022-11-20T01:23:31;7.78;;;4.00;;
11191;SDS011;5652;48.406;10.820;2022-11-20T01:26:00;4.95;;;3.47;;
11191;SDS011;5652;48.406;10.820;2022-11-20T01:28:28;6.03;;;4.07;;
11191;SDS011;5652;48.406;10.820;2022-11-20T01:30:55;6.30;;;4.05;;
11191;SDS011;5652;48.406;10.820;2022-11-20T01:33:24;6.38;;;3.85;;
11191;SDS011;5652;48.406;10.820;2022-11-20T01:35:52;5.68;;;3.80;;
11191;SDS011;5652;48.406;10.820;2022-11-20T01:38:19;6.03;;;3.50;;
11191;SDS011;5652;48.406;10.820;2022-11-20T01:40:55;5.75;;;3.63;;
11191;SDS011;5652;48.406;10.820;2022-11-20T01:43:23;7.25;;;3.33;;
11191;SDS011;5652;48.406;10.820;2022-11-20T01:48:44;5.57;;;3.40;;
11191;SDS011;5652;48.406;10.820;2022-11-20T01:51:17;6.10;;;3.08;;
11191;SDS011;5652;48.406;10.820;2022-11-20T01:53:46;6.15;;;3.65;;
11191;SDS011;5652;48.406;10.820;2022-11-20T01:56:13;5.95;;;3.70;;
11191;SDS011;5652;48.406;10.820;2022-11-20T01:58:42;5.30;;;3.63;;
11191;SDS011;5652;48.406;10.820;2022-11-20T02:01:10;5.93;;;3.77;;
11191;SDS011;5652;48.406;10.820;2022-11-20T02:03:38;5.40;;;3.38;;
11191;SDS011;5652;48.406;10.820;2022-11-20T02:06:10;4.63;;;3.10;;
11191;SDS011;5652;48.406;10.820;2022-11-20T02:08:39;5.40;;;3.58;;
11191;SDS011;5652;48.406;10.820;2022-11-20T02:11:06;5.38;;;3.67;;
11191;SDS011;5652;48.406;10.820;2022-11-20T02:13:35;5.47;;;3.30;;
11191;SDS011;5652;48.406;10.820;2022-11-20T02:16:08;5.43;;;2.65;;
11191;SDS011;5652;48.406;10.820;2022-11-20T02:18:37;5.32;;;3.60;;
11191;SDS011;5652;48.406;10.820;2022-11-20T02:21:06;3.47;;;2.53;;
11191;SDS011;5652;48.406;10.820;2022-11-20T02:23:38;4.30;;;2.88;;
11191;SDS011;5652;48.406;10.820;2022-11-20T02:26:07;3.43;;;2.40;;
11191;SDS011;5652;48.406;10.820;2022-11-20T02:28:35;4.18;;;2.90;;
11191;SDS011;5652;48.406;10.820;2022-11-20T02:31:04;5.10;;;3.47;;
11191;SDS011;5652;48.406;10.820;2022-11-20T02:33:31;4.00;;;2.92;;
11191;SDS011;5652;48.406;10.820;2022-11-20T02:35:58;7.25;;;2.90;;
11191;SDS011;5652;48.406;10.820;2022-11-20T02:38:25;6.37;;;3.47;;
11191;SDS011;5652;48.406;10.820;2022-11-20T02:40:53;4.28;;;2.83;;
11191;SDS011;5652;48.406;10.820;2022-11-20T02:43:22;4.50;;;3.30;;
11191;SDS011;5652;48.406;10.820;2022-11-20T02:45:50;5.70;;;3.35;;
11191;SDS011;5652;48.406;10.820;2022-11-20T02:48:17;4.80;;;3.47;;
11191;SDS011;5652;48.406;10.820;2022-11-20T02:50:44;5.25;;;3.60;;
11191;SDS011;5652;48.406;10.820;2022-11-20T02:53:12;5.75;;;3.80;;
11191;SDS011;5652;48.406;10.820;2022-11-20T02:55:39;9.07;;;3.78;;
11191;SDS011;5652;48.406;10.820;2022-11-20T02:58:06;8.05;;;3.50;;
11191;SDS011;5652;48.406;10.820;2022-11-20T03:00:35;10.52;;;3.47;;
11191;SDS011;5652;48.406;10.820;2022-11-20T03:03:02;5.53;;;3.72;;
11191;SDS011;5652;48.406;10.820;2022-11-20T03:05:29;5.60;;;3.38;;
11191;SDS011;5652;48.406;10.820;2022-11-20T03:07:57;5.00;;;3.38;;
11191;SDS011;5652;48.406;10.820;2022-11-20T03:10:24;4.40;;;2.35;;
11191;SDS011;5652;48.406;10.820;2022-11-20T03:12:52;6.32;;;3.30;;
11191;SDS011;5652;48.406;10.820;2022-11-20T03:15:20;4.03;;;2.67;;
11191;SDS011;5652;48.406;10.820;2022-11-20T03:17:52;3.43;;;2.57;;
11191;SDS011;5652;48.406;10.820;2022-11-20T03:20:20;4.10;;;2.88;;
11191;SDS011;5652;48.406;10.820;2022-11-20T03:22:47;4.50;;;3.20;;
11191;SDS011;5652;48.406;10.820;2022-11-20T03:25:16;3.20;;;2.33;;
11191;SDS011;5652;48.406;10.820;2022-11-20T03:27:44;5.28;;;3.17;;
11191;SDS011;5652;48.406;10.820;2022-11-20T03:30:11;4.95;;;2.88;;
11191;SDS011;5652;48.406;10.820;2022-11-20T03:32:38;4.07;;;3.00;;
11191;SDS011;5652;48.406;10.820;2022-11-20T03:35:08;6.83;;;3.13;;
11191;SDS011;5652;48.406;10.820;2022-11-20T03:37:35;4.53;;;2.92;;
11191;SDS011;5652;48.406;10.820;2022-11-20T03:40:03;4.82;;;2.95;;
11191;SDS011;5652;48.406;10.820;2022-11-20T03:42:30;5.30;;;2.92;;
11191;SDS011;5652;48.406;10.820;2022-11-20T03:45:13;7.80;;;2.65;;
11191;SDS011;5652;48.406;10.820;2022-11-20T03:47:40;3.60;;;1.98;;
11191;SDS011;5652;48.406;10.820;2022-11-20T03:50:10;2.22;;;1.83;;
11191;SDS011;5652;48.406;10.820;2022-11-20T03:52:38;4.85;;;2.67;;
11191;SDS011;5652;48.406;10.820;2022-11-20T03:55:07;5.13;;;2.67;;
11191;SDS011;5652;48.406;10.820;2022-11-20T03:57:34;4.25;;;3.13;;
11191;SDS011;5652;48.406;10.820;2022-11-20T04:00:02;3.38;;;2.42;;
11191;SDS011;5652;48.406;10.820;2022-11-20T04:02:29;2.10;;;1.83;;
11191;SDS011;5652;48.406;10.820;2022-11-20T04:04:58;2.97;;;1.80;;
11191;SDS011;5652;48.406;10.820;2022-11-20T04:07:26;3.92;;;2.80;;
11191;SDS011;5652;48.406;10.820;2022-11-20T04:09:54;3.15;;;2.35;;
11191;SDS011;5652;48.406;10.820;2022-11-20T04:12:21;3.87;;;2.73;;
11191;SDS011;5652;48.406;10.820;2022-11-20T04:14:51;4.70;;;2.57;;
11191;SDS011;5652;48.406;10.820;2022-11-20T04:17:18;4.78;;;2.70;;
11191;SDS011;5652;48.406;10.820;2022-11-20T04:19:46;4.80;;;3.08;;
11191;SDS011;5652;48.406;10.820;2022-11-20T04:22:13;3.60;;;2.47;;
11191;SDS011;5652;48.406;10.820;2022-11-20T04:24:42;3.75;;;2.70;;
11191;SDS011;5652;48.406;10.820;2022-11-20T04:27:09;4.20;;;2.63;;
11191;SDS011;5652;48.406;10.820;2022-11-20T04:29:36;3.35;;;2.50;;
11191;SDS011;5652;48.406;10.820;2022-11-20T04:32:04;4.53;;;2.88;;
11191;SDS011;5652;48.406;10.820;2022-11-20T04:34:31;4.03;;;2.45;;
11191;SDS011;5652;48.406;10.820;2022-11-20T04:36:58;6.35;;;3.15;;
11191;SDS011;5652;48.406;10.820;2022-11-20T04:39:26;3.13;;;2.38;;
11191;SDS011;5652;48.406;10.820;2022-11-20T04:41:54;5.03;;;2.78;;
11191;SDS011;5652;48.406;10.820;2022-11-20T04:44:35;4.70;;;2.80;;
11191;SDS011;5652;48.406;10.820;2022-11-20T04:47:03;3.95;;;2.67;;
11191;SDS011;5652;48.406;10.820;2022-11-20T04:49:30;3.72;;;2.85;;
11191;SDS011;5652;48.406;10.820;2022-11-20T04:51:57;4.15;;;2.67;;
11191;SDS011;5652;48.406;10.820;2022-11-20T04:54:24;3.05;;;2.30;;
11191;SDS011;5652;48.406;10.820;2022-11-20T04:56:52;4.53;;;3.00;;
11191;SDS011;5652;48.406;10.820;2022-11-20T04:59:21;6.45;;;3.60;;
11191;SDS011;5652;48.406;10.820;2022-11-20T05:01:48;4.30;;;3.22;;
11191;SDS011;5652;48.406;10.820;2022-11-20T05:04:15;4.22;;;2.70;;
11191;SDS011;5652;48.406;10.820;2022-11-20T05:06:43;5.18;;;3.08;;
11191;SDS011;5652;48.406;10.820;2022-11-20T05:09:11;4.57;;;3.13;;
11191;SDS011;5652;48.406;10.820;2022-11-20T05:11:38;5.03;;;3.05;;
11191;SDS011;5652;48.406;10.820;2022-11-20T05:14:06;4.93;;;3.42;;
11191;SDS011;5652;48.406;10.820;2022-11-20T05:16:36;4.07;;;3.13;;
11191;SDS011;5652;48.406;10.820;2022-11-20T05:19:03;4.40;;;2.85;;
11191;SDS011;5652;48.406;10.820;2022-11-20T05:21:30;4.20;;;3.17;;
11191;SDS011;5652;48.406;10.820;2022-11-20T05:23:59;4.80;;;3.05;;
11191;SDS011;5652;48.406;10.820;2022-11-20T05:26:26;5.75;;;3.22;;
11191;SDS011;5652;48.406;10.820;2022-11-20T05:28:54;5.15;;;3.10;;
11191;SDS011;5652;48.406;10.820;2022-11-20T05:31:22;4.17;;;2.57;;
11191;SDS011;5652;48.406;10.820;2022-11-20T05:33:51;5.57;;;2.85;;
11191;SDS011;5652;48.406;10.820;2022-11-20T05:36:18;4.65;;;2.63;;
11191;SDS011;5652;48.406;10.820;2022-11-20T05:38:46;3.92;;;2.90;;
11191;SDS011;5652;48.406;10.820;2022-11-20T05:41:13;4.93;;;3.05;;
11191;SDS011;5652;48.406;10.820;2022-11-20T05:43:42;4.32;;;2.88;;
11191;SDS011;5652;48.406;10.820;2022-11-20T05:46:10;6.57;;;3.20;;
11191;SDS011;5652;48.406;10.820;2022-11-20T05:48:38;4.27;;;2.80;;
11191;SDS011;5652;48.406;10.820;2022-11-20T05:51:07;3.45;;;2.45;;
11191;SDS011;5652;48.406;10.820;2022-11-20T05:53:35;3.47;;;2.60;;
11191;SDS011;5652;48.406;10.820;2022-11-20T05:56:03;3.88;;;2.45;;
11191;SDS011;5652;48.406;10.820;2022-11-20T05:58:31;5.10;;;2.95;;
11191;SDS011;5652;48.406;10.820;2022-11-20T06:01:02;3.70;;;2.97;;
11191;SDS011;5652;48.406;10.820;2022-11-20T06:03:30;3.25;;;2.50;;
11191;SDS011;5652;48.406;10.820;2022-11-20T06:05:58;3.17;;;2.40;;
11191;SDS011;5652;48.406;10.820;2022-11-20T06:08:27;4.93;;;2.75;;
11191;SDS011;5652;48.406;10.820;2022-11-20T06:10:54;2.45;;;2.13;;
11191;SDS011;5652;48.406;10.820;2022-11-20T06:13:21;4.25;;;2.60;;
11191;SDS011;5652;48.406;10.820;2022-11-20T06:15:49;3.25;;;2.35;;
11191;SDS011;5652;48.406;10.820;2022-11-20T06:18:16;3.80;;;2.37;;
11191;SDS011;5652;48.406;10.820;2022-11-20T06:20:44;3.10;;;2.22;;
11191;SDS011;5652;48.406;10.820;2022-11-20T06:23:11;4.57;;;2.63;;
11191;SDS011;5652;48.406;10.820;2022-11-20T06:25:40;3.75;;;2.47;;
11191;SDS011;5652;48.406;10.820;2022-11-20T06:28:08;3.22;;;2.22;;
11191;SDS011;5652;48.406;10.820;2022-11-20T06:30:35;3.65;;;2.33;;
11191;SDS011;5652;48.406;10.820;2022-11-20T06:33:02;3.28;;;2.38;;
11191;SDS011;5652;48.406;10.820;2022-11-20T06:35:30;3.20;;;2.20;;
11191;SDS011;5652;48.406;10.820;2022-11-20T06:37:58;4.13;;;2.30;;
11191;SDS011;5652;48.406;10.820;2022-11-20T06:40:25;2.90;;;2.10;;
11191;SDS011;5652;48.406;10.820;2022-11-20T06:42:54;4.85;;;2.25;;
11191;SDS011;5652;48.406;10.820;2022-11-20T06:45:21;3.75;;;2.33;;
11191;SDS011;5652;48.406;10.820;2022-11-20T06:47:50;3.07;;;2.40;;
11191;SDS011;5652;48.406;10.820;2022-11-20T06:50:17;3.50;;;2.60;;
11191;SDS011;5652;48.406;10.820;2022-11-20T06:52:44;1.88;;;1.60;;
11191;SDS011;5652;48.406;10.820;2022-11-20T06:55:16;2.30;;;1.77;;
11191;SDS011;5652;48.406;10.820;2022-11-20T06:57:45;3.53;;;2.17;;
11191;SDS011;5652;48.406;10.820;2022-11-20T07:00:15;3.13;;;2.10;;
11191;SDS011;5652;48.406;10.820;2022-11-20T07:02:42;4.95;;;1.80;;
11191;SDS011;5652;48.406;10.820;2022-11-20T07:05:09;3.38;;;2.25;;
11191;SDS011;5652;48.406;10.820;2022-11-20T07:07:37;2.47;;;1.80;;
11191;SDS011;5652;48.406;10.820;2022-11-20T07:10:04;2.35;;;1.77;;
11191;SDS011;5652;48.406;10.820;2022-11-20T07:12:32;3.92;;;2.40;;
11191;SDS011;5652;48.406;10.820;2022-11-20T07:14:59;2.63;;;2.10;;
11191;SDS011;5652;48.406;10.820;2022-11-20T07:17:27;1.95;;;1.55;;
11191;SDS011;5652;48.406;10.820;2022-11-20T07:19:55;2.33;;;1.57;;
11191;SDS011;5652;48.406;10.820;2022-11-20T07:22:22;4.22;;;1.98;;
11191;SDS011;5652;48.406;10.820;2022-11-20T07:24:49;3.90;;;2.50;;
11191;SDS011;5652;48.406;10.820;2022-11-20T07:27:16;1.73;;;1.40;;
11191;SDS011;5652;48.406;10.820;2022-11-20T07:29:44;3.58;;;2.25;;
11191;SDS011;5652;48.406;10.820;2022-11-20T07:32:11;2.38;;;1.90;;
11191;SDS011;5652;48.406;10.820;2022-11-20T07:34:39;2.55;;;2.03;;
11191;SDS011;5652;48.406;10.820;2022-11-20T07:37:07;2.72;;;1.80;;
11191;SDS011;5652;48.406;10.820;2022-11-20T07:39:34;1.50;;;1.38;;
11191;SDS011;5652;48.406;10.820;2022-11-20T07:42:01;1.90;;;1.40;;
11191;SDS011;5652;48.406;10.820;2022-11-20T07:44:28;2.25;;;1.75;;
11191;SDS011;5652;48.406;10.820;2022-11-20T07:46:56;2.28;;;1.83;;
11191;SDS011;5652;48.406;10.820;2022-11-20T07:49:23;2.25;;;1.70;;
11191;SDS011;5652;48.406;10.820;2022-11-20T07:51:52;1.63;;;1.40;;
11191;SDS011;5652;48.406;10.820;2022-11-20T07:54:19;3.53;;;1.73;;
11191;SDS011;5652;48.406;10.820;2022-11-20T07:56:47;2.58;;;1.58;;
11191;SDS011;5652;48.406;10.820;2022-11-20T07:59:14;2.07;;;1.80;;
11191;SDS011;5652;48.406;10.820;2022-11-20T08:01:42;3.33;;;1.73;;
11191;SDS011;5652;48.406;10.820;2022-11-20T08:04:09;1.70;;;1.42;;
11191;SDS011;5652;48.406;10.820;2022-11-20T08:06:36;1.70;;;1.58;;
11191;SDS011;5652;48.406;10.820;2022-11-20T08:09:05;1.83;;;1.50;;
11191;SDS011;5652;48.406;10.820;2022-11-20T08:11:32;3.40;;;1.70;;
11191;SDS011;5652;48.406;10.820;2022-11-20T08:14:17;2.47;;;2.00;;
11191;SDS011;5652;48.406;10.820;2022-11-20T08:16:45;2.08;;;1.50;;
11191;SDS011;5652;48.406;10.820;2022-11-20T08:19:13;4.03;;;1.65;;
11191;SDS011;5652;48.406;10.820;2022-11-20T08:21:40;2.33;;;2.00;;
11191;SDS011;5652;48.406;10.820;2022-11-20T08:24:09;1.58;;;1.48;;
11191;SDS011;5652;48.406;10.820;2022-11-20T08:26:37;2.28;;;1.67;;
11191;SDS011;5652;48.406;10.820;2022-11-20T08:29:05;1.40;;;1.27;;
11191;SDS011;5652;48.406;10.820;2022-11-20T08:31:32;1.52;;;1.27;;
11191;SDS011;5652;48.406;10.820;2022-11-20T08:34:00;2.13;;;1.70;;
11191;SDS011;5652;48.406;10.820;2022-11-20T08:36:28;3.45;;;1.83;;
11191;SDS011;5652;48.406;10.820;2022-11-20T08:38:55;2.00;;;1.57;;
11191;SDS011;5652;48.406;10.820;2022-11-20T08:41:24;4.38;;;1.80;;
11191;SDS011;5652;48.406;10.820;2022-11-20T08:43:53;1.40;;;1.27;;
11191;SDS011;5652;48.406;10.820;2022-11-20T08:46:21;2.00;;;1.50;;
11191;SDS011;5652;48.406;10.820;2022-11-20T08:48:50;3.20;;;2.00;;
11191;SDS011;5652;48.406;10.820;2022-11-20T08:51:18;1.45;;;1.27;;
11191;SDS011;5652;48.406;10.820;2022-11-20T08:53:46;2.00;;;1.75;;
11191;SDS011;5652;48.406;10.820;2022-11-20T08:56:14;2.85;;;1.80;;
11191;SDS011;5652;48.406;10.820;2022-11-20T08:58:43;3.20;;;1.42;;
11191;SDS011;5652;48.406;10.820;2022-11-20T09:01:10;2.30;;;1.77;;
11191;SDS011;5652;48.406;10.820;2022-11-20T09:03:38;2.67;;;1.80;;
11191;SDS011;5652;48.406;10.820;2022-11-20T09:06:06;2.40;;;1.80;;
11191;SDS011;5652;48.406;10.820;2022-11-20T09:08:34;2.70;;;1.50;;
11191;SDS011;5652;48.406;10.820;2022-11-20T09:11:02;2.42;;;1.90;;
11191;SDS011;5652;48.406;10.820;2022-11-20T09:13:30;1.90;;;1.70;;
11191;SDS011;5652;48.406;10.820;2022-11-20T09:16:01;3.22;;;2.00;;
11191;SDS011;5652;48.406;10.820;2022-11-20T09:18:28;4.93;;;2.25;;
11191;SDS011;5652;48.406;10.820;2022-11-20T09:20:57;2.78;;;2.13;;
11191;SDS011;5652;48.406;10.820;2022-11-20T09:23:25;1.92;;;1.48;;
11191;SDS011;5652;48.406;10.820;2022-11-20T09:25:53;1.92;;;1.65;;
11191;SDS011;5652;48.406;10.820;2022-11-20T09:28:24;2.40;;;1.90;;
11191;SDS011;5652;48.406;10.820;2022-11-20T09:30:52;1.33;;;1.20;;
11191;SDS011;5652;48.406;10.820;2022-11-20T09:33:20;2.17;;;1.67;;
11191;SDS011;5652;48.406;10.820;2022-11-20T09:35:48;2.70;;;1.70;;
11191;SDS011;5652;48.406;10.820;2022-11-20T09:38:15;2.30;;;1.75;;
11191;SDS011;5652;48.406;10.820;2022-11-20T09:40:44;1.65;;;1.20;;
11191;SDS011;5652;48.406;10.820;2022-11-20T09:43:13;2.45;;;1.73;;
11191;SDS011;5652;48.406;10.820;2022-11-20T09:45:47;3.25;;;1.58;;
11191;SDS011;5652;48.406;10.820;2022-11-20T09:48:32;2.17;;;1.35;;
11191;SDS011;5652;48.406;10.820;2022-11-20T09:51:03;1.08;;;0.98;;
11191;SDS011;5652;48.406;10.820;2022-11-20T09:53:35;1.80;;;1.50;;
11191;SDS011;5652;48.406;10.820;2022-11-20T09:56:06;3.10;;;1.33;;
11191;SDS011;5652;48.406;10.820;2022-11-20T09:58:38;3.40;;;1.50;;
11191;SDS011;5652;48.406;10.820;2022-11-20T10:01:09;1.30;;;1.20;;
11191;SDS011;5652;48.406;10.820;2022-11-20T10:03:41;2.30;;;1.27;;
11191;SDS011;5652;48.406;10.820;2022-11-20T10:06:11;1.55;;;1.30;;
11191;SDS011;5652;48.406;10.820;2022-11-20T10:08:40;1.38;;;1.20;;
11191;SDS011;5652;48.406;10.820;2022-11-20T10:11:11;3.00;;;1.33;;
11191;SDS011;5652;48.406;10.820;2022-11-20T10:13:43;1.60;;;1.27;;
11191;SDS011;5652;48.406;10.820;2022-11-20T10:16:17;1.02;;;0.98;;
11191;SDS011;5652;48.406;10.820;2022-11-20T10:18:54;1.00;;;0.90;;
11191;SDS011;5652;48.406;10.820;2022-11-20T10:21:26;0.93;;;0.93;;
11191;SDS011;5652;48.406;10.820;2022-11-20T10:24:04;1.90;;;1.70;;
11191;SDS011;5652;48.406;10.820;2022-11-20T10:26:38;1.97;;;1.43;;
11191;SDS011;5652;48.406;10.820;2022-11-20T10:29:10;2.00;;;1.27;;
11191;SDS011;5652;48.406;10.820;2022-11-20T10:31:39;2.22;;;1.50;;
11191;SDS011;5652;48.406;10.820;2022-11-20T10:34:12;1.20;;;0.93;;
11191;SDS011;5652;48.406;10.820;2022-11-20T10:36:44;1.33;;;1.10;;
11191;SDS011;5652;48.406;10.820;2022-11-20T10:39:15;1.58;;;1.30;;
11191;SDS011;5652;48.406;10.820;2022-11-20T10:41:43;1.67;;;1.15;;
11191;SDS011;5652;48.406;10.820;2022-11-20T10:44:15;2.20;;;1.00;;
11191;SDS011;5652;48.406;10.820;2022-11-20T10:47:04;1.27;;;1.05;;
11191;SDS011;5652;48.406;10.820;2022-11-20T10:49:33;1.17;;;1.08;;
11191;SDS011;5652;48.406;10.820;2022-11-20T10:52:04;2.17;;;1.38;;
11191;SDS011;5652;48.406;10.820;2022-11-20T10:54:36;1.15;;;1.05;;
11191;SDS011;5652;48.406;10.820;2022-11-20T10:57:07;1.90;;;1.13;;
11191;SDS011;5652;48.406;10.820;2022-11-20T10:59:38;0.98;;;0.90;;
11191;SDS011;5652;48.406;10.820;2022-11-20T11:02:19;1.05;;;0.95;;
11191;SDS011;5652;48.406;10.820;2022-11-20T11:04:49;1.17;;;1.00;;
11191;SDS011;5652;48.406;10.820;2022-11-20T11:07:17;1.05;;;1.00;;
11191;SDS011;5652;48.406;10.820;2022-11-20T11:09:48;0.90;;;0.90;;
11191;SDS011;5652;48.406;10.820;2022-11-20T11:12:15;1.92;;;1.30;;
11191;SDS011;5652;48.406;10.820;2022-11-20T11:14:43;1.20;;;1.10;;
11191;SDS011;5652;48.406;10.820;2022-11-20T11:17:26;1.33;;;1.23;;
11191;SDS011;5652;48.406;10.820;2022-11-20T11:19:59;1.20;;;1.10;;
11191;SDS011;5652;48.406;10.820;2022-11-20T11:22:27;2.47;;;1.30;;
11191;SDS011;5652;48.406;10.820;2022-11-20T11:24:55;1.10;;;1.00;;
11191;SDS011;5652;48.406;10.820;2022-11-20T11:27:22;1.13;;;0.98;;
11191;SDS011;5652;48.406;10.820;2022-11-20T11:29:50;1.92;;;1.00;;
11191;SDS011;5652;48.406;10.820;2022-11-20T11:32:28;1.10;;;1.00;;
11191;SDS011;5652;48.406;10.820;2022-11-20T11:35:00;1.52;;;1.20;;
11191;SDS011;5652;48.406;10.820;2022-11-20T11:37:28;1.30;;;1.00;;
11191;SDS011;5652;48.406;10.820;2022-11-20T11:39:57;0.88;;;0.77;;
11191;SDS011;5652;48.406;10.820;2022-11-20T11:42:24;2.22;;;1.10;;
11191;SDS011;5652;48.406;10.820;2022-11-20T11:44:52;1.30;;;1.02;;
11191;SDS011;5652;48.406;10.820;2022-11-20T11:47:31;1.75;;;1.45;;
11191;SDS011;5652;48.406;10.820;2022-11-20T11:50:13;0.75;;;0.73;;
11191;SDS011;5652;48.406;10.820;2022-11-20T11:52:42;1.10;;;1.00;;
11191;SDS011;5652;48.406;10.820;2022-11-20T11:55:12;1.17;;;1.00;;
11191;SDS011;5652;48.406;10.820;2022-11-20T11:57:44;1.77;;;0.90;;
11191;SDS011;5652;48.406;10.820;2022-11-20T12:00:14;1.70;;;1.05;;
11191;SDS011;5652;48.406;10.820;2022-11-20T12:02:48;1.93;;;1.20;;
11191;SDS011;5652;48.406;10.820;2022-11-20T12:05:19;0.65;;;0.65;;
11191;SDS011;5652;48.406;10.820;2022-11-20T12:07:47;2.17;;;1.27;;
11191;SDS011;5652;48.406;10.820;2022-11-20T12:10:20;1.73;;;1.05;;
11191;SDS011;5652;48.406;10.820;2022-11-20T12:12:52;1.60;;;0.90;;
11191;SDS011;5652;48.406;10.820;2022-11-20T12:15:30;2.22;;;1.23;;
11191;SDS011;5652;48.406;10.820;2022-11-20T12:17:58;1.48;;;1.10;;
11191;SDS011;5652;48.406;10.820;2022-11-20T12:20:27;0.90;;;0.88;;
11191;SDS011;5652;48.406;10.820;2022-11-20T12:22:59;1.20;;;1.00;;
11191;SDS011;5652;48.406;10.820;2022-11-20T12:25:28;1.17;;;1.05;;
11191;SDS011;5652;48.406;10.820;2022-11-20T12:28:07;1.50;;;1.10;;
11191;SDS011;5652;48.406;10.820;2022-11-20T12:30:39;1.27;;;1.08;;
11191;SDS011;5652;48.406;10.820;2022-11-20T12:33:18;1.60;;;1.20;;
11191;SDS011;5652;48.406;10.820;2022-11-20T12:41:18;1.38;;;1.20;;
11191;SDS011;5652;48.406;10.820;2022-11-20T12:44:03;1.40;;;1.20;;
11191;SDS011;5652;48.406;10.820;2022-11-20T12:46:51;1.70;;;1.40;;
11191;SDS011;5652;48.406;10.820;2022-11-20T12:49:25;2.50;;;1.25;;
11191;SDS011;5652;48.406;10.820;2022-11-20T12:51:58;0.87;;;0.87;;
11191;SDS011;5652;48.406;10.820;2022-11-20T12:54:39;3.00;;;1.70;;
11191;SDS011;5652;48.406;10.820;2022-11-20T12:57:14;1.95;;;1.40;;
11191;SDS011;5652;48.406;10.820;2022-11-20T12:59:49;0.85;;;0.85;;
11191;SDS011;5652;48.406;10.820;2022-11-20T13:02:23;1.45;;;1.13;;
11191;SDS011;5652;48.406;10.820;2022-11-20T13:04:57;1.42;;;1.13;;
11191;SDS011;5652;48.406;10.820;2022-11-20T13:07:30;0.93;;;0.93;;
11191;SDS011;5652;48.406;10.820;2022-11-20T13:09:58;1.70;;;0.90;;
11191;SDS011;5652;48.406;10.820;2022-11-20T13:12:28;1.20;;;1.10;;
11191;SDS011;5652;48.406;10.820;2022-11-20T13:14:58;1.73;;;1.23;;
11191;SDS011;5652;48.406;10.820;2022-11-20T13:17:30;1.53;;;1.23;;
11191;SDS011;5652;48.406;10.820;2022-11-20T13:20:00;1.57;;;1.20;;
11191;SDS011;5652;48.406;10.820;2022-11-20T13:22:28;1.10;;;1.00;;
11191;SDS011;5652;48.406;10.820;2022-11-20T13:24:56;2.00;;;1.33;;
11191;SDS011;5652;48.406;10.820;2022-11-20T13:27:23;1.83;;;1.50;;
11191;SDS011;5652;48.406;10.820;2022-11-20T13:30:02;1.73;;;1.27;;
11191;SDS011;5652;48.406;10.820;2022-11-20T13:32:47;1.80;;;1.10;;
11191;SDS011;5652;48.406;10.820;2022-11-20T13:35:23;1.38;;;0.93;;
11191;SDS011;5652;48.406;10.820;2022-11-20T13:37:59;1.25;;;1.10;;
11191;SDS011;5652;48.406;10.820;2022-11-20T13:40:26;1.38;;;1.20;;
11191;SDS011;5652;48.406;10.820;2022-11-20T13:43:01;1.38;;;1.25;;
11191;SDS011;5652;48.406;10.820;2022-11-20T13:45:31;3.85;;;1.20;;
11191;SDS011;5652;48.406;10.820;2022-11-20T13:48:00;1.20;;;1.10;;
11191;SDS011;5652;48.406;10.820;2022-11-20T13:50:38;1.08;;;0.80;;
11191;SDS011;5652;48.406;10.820;2022-11-20T13:53:08;1.75;;;1.20;;
11191;SDS011;5652;48.406;10.820;2022-11-20T13:55:41;0.85;;;0.77;;
11191;SDS011;5652;48.406;10.820;2022-11-20T13:58:17;2.00;;;1.20;;
11191;SDS011;5652;48.406;10.820;2022-11-20T14:00:48;2.50;;;1.23;;
11191;SDS011;5652;48.406;10.820;2022-11-20T14:03:18;1.88;;;1.08;;
11191;SDS011;5652;48.406;10.820;2022-11-20T14:05:48;0.80;;;0.80;;
11191;SDS011;5652;48.406;10.820;2022-11-20T14:08:19;1.17;;;1.08;;
11191;SDS011;5652;48.406;10.820;2022-11-20T14:10:48;0.90;;;0.90;;
11191;SDS011;5652;48.406;10.820;2022-11-20T14:13:15;1.20;;;1.00;;
11191;SDS011;5652;48.406;10.820;2022-11-20T14:15:44;1.23;;;1.00;;
11191;SDS011;5652;48.406;10.820;2022-11-20T14:18:14;1.38;;;1.00;;
11191;SDS011;5652;48.406;10.820;2022-11-20T14:20:41;3.38;;;1.00;;
11191;SDS011;5652;48.406;10.820;2022-11-20T14:23:09;1.17;;;0.93;;
11191;SDS011;5652;48.406;10.820;2022-11-20T14:25:37;2.30;;;1.27;;
11191;SDS011;5652;48.406;10.820;2022-11-20T14:28:10;1.00;;;0.90;;
11191;SDS011;5652;48.406;10.820;2022-11-20T14:30:39;1.48;;;1.20;;
11191;SDS011;5652;48.406;10.820;2022-11-20T14:33:10;1.00;;;0.90;;
11191;SDS011;5652;48.406;10.820;2022-11-20T14:35:40;2.40;;;1.25;;
11191;SDS011;5652;48.406;10.820;2022-11-20T14:38:11;1.52;;;1.25;;
11191;SDS011;5652;48.406;10.820;2022-11-20T14:40:40;1.77;;;1.13;;
11191;SDS011;5652;48.406;10.820;2022-11-20T14:43:16;1.40;;;1.30;;
11191;SDS011;5652;48.406;10.820;2022-11-20T14:45:44;3.42;;;1.60;;
11191;SDS011;5652;48.406;10.820;2022-11-20T14:48:13;1.17;;;1.02;;
11191;SDS011;5652;48.406;10.820;2022-11-20T14:50:42;1.35;;;1.02;;
11191;SDS011;5652;48.406;10.820;2022-11-20T14:53:09;2.37;;;1.10;;
11191;SDS011;5652;48.406;10.820;2022-11-20T14:55:37;0.80;;;0.80;;
11191;SDS011;5652;48.406;10.820;2022-11-20T14:58:05;2.00;;;1.08;;
11191;SDS011;5652;48.406;10.820;2022-11-20T15:00:34;1.25;;;1.10;;
11191;SDS011;5652;48.406;10.820;2022-11-20T15:03:02;1.77;;;1.30;;
11191;SDS011;5652;48.406;10.820;2022-11-20T15:08:13;1.33;;;1.10;;
11191;SDS011;5652;48.406;10.820;2022-11-20T15:10:45;2.55;;;1.38;;
11191;SDS011;5652;48.406;10.820;2022-11-20T15:13:13;1.47;;;1.37;;